createdAt,value
2019-03-23T00:01:46.823Z,12.17
2019-03-23T00:04:16.666Z,12.15
2019-03-23T00:06:46.502Z,12.07
2019-03-23T00:09:16.340Z,12.06
2019-03-23T00:11:46.143Z,11.90
2019-03-23T00:14:15.988Z,12.00
2019-03-23T00:16:45.799Z,11.91
2019-03-23T00:19:15.621Z,12.01
2019-03-23T00:21:45.432Z,11.96
2019-03-23T00:24:15.259Z,12.00
2019-03-23T00:26:45.051Z,11.90
2019-03-23T00:29:14.891Z,11.84
2019-03-23T00:31:44.724Z,11.81
2019-03-23T00:34:14.568Z,11.83
2019-03-23T00:36:44.359Z,11.84
2019-03-23T00:39:14.180Z,11.91
2019-03-23T00:41:43.986Z,11.67
2019-03-23T00:44:13.799Z,11.86
2019-03-23T00:46:43.599Z,11.81
2019-03-23T00:49:13.418Z,11.81
2019-03-23T00:51:43.225Z,11.62
2019-03-23T00:54:13.053Z,11.62
2019-03-23T00:56:42.859Z,11.62
2019-03-23T00:59:12.703Z,11.70
2019-03-23T01:01:42.496Z,11.54
2019-03-23T01:04:12.331Z,11.54
2019-03-23T01:06:51.743Z,11.62
2019-03-23T01:09:13.657Z,11.64
2019-03-23T01:11:43.422Z,11.62
2019-03-23T01:14:13.255Z,11.45
2019-03-23T01:16:43.053Z,11.45
2019-03-23T01:19:12.915Z,11.48
2019-03-23T01:21:42.715Z,11.42
2019-03-23T01:24:12.509Z,11.41
2019-03-23T01:26:42.335Z,11.15
2019-03-23T01:29:12.143Z,10.81
2019-03-23T01:31:41.957Z,10.71
2019-03-23T01:34:11.745Z,10.69
2019-03-23T01:36:41.553Z,10.91
2019-03-23T01:39:11.373Z,10.87
2019-03-23T01:41:41.197Z,10.97
2019-03-23T01:44:10.975Z,10.78
2019-03-23T01:46:40.789Z,10.72
2019-03-23T01:49:10.572Z,10.85
2019-03-23T01:51:40.395Z,10.93
2019-03-23T01:54:10.229Z,10.99
2019-03-23T01:56:40.050Z,10.89
2019-03-23T01:59:09.885Z,11.05
2019-03-23T02:01:39.702Z,11.07
2019-03-23T02:04:09.636Z,10.99
2019-03-23T02:06:39.455Z,11.01
2019-03-23T02:09:09.233Z,10.78
2019-03-23T02:11:39.063Z,10.73
2019-03-23T02:14:08.838Z,11.04
2019-03-23T02:16:38.677Z,10.75
2019-03-23T02:19:08.517Z,10.91
2019-03-23T02:21:38.391Z,10.62
2019-03-23T02:24:08.240Z,10.91
2019-03-23T02:26:38.041Z,10.91
2019-03-23T02:29:07.826Z,10.66
2019-03-23T02:31:37.670Z,10.70
2019-03-23T02:34:07.539Z,10.60
2019-03-23T02:36:37.419Z,10.65
2019-03-23T02:39:07.889Z,10.66
2019-03-23T02:41:37.787Z,10.47
2019-03-23T02:44:07.586Z,10.56
2019-03-23T02:46:37.453Z,10.67
2019-03-23T02:49:07.257Z,10.89
2019-03-23T02:51:39.753Z,10.94
2019-03-23T02:54:08.676Z,10.72
2019-03-23T02:56:38.496Z,10.62
2019-03-23T02:59:08.285Z,10.76
2019-03-23T03:01:38.160Z,10.57
2019-03-23T03:04:07.976Z,10.52
2019-03-23T03:06:37.821Z,10.65
2019-03-23T03:09:08.117Z,10.51
2019-03-23T03:11:37.983Z,10.66
2019-03-23T03:14:07.820Z,10.55
2019-03-23T03:16:37.600Z,10.64
2019-03-23T03:19:07.443Z,10.42
2019-03-23T03:21:37.202Z,10.40
2019-03-23T03:24:07.015Z,10.54
2019-03-23T03:26:36.779Z,10.45
2019-03-23T03:29:06.600Z,10.44
2019-03-23T03:31:36.379Z,10.22
2019-03-23T03:34:06.217Z,10.43
2019-03-23T03:36:36.001Z,10.31
2019-03-23T03:39:07.958Z,10.37
2019-03-23T03:41:37.785Z,10.22
2019-03-23T03:44:07.609Z,10.23
2019-03-23T03:46:37.376Z,10.10
2019-03-23T03:49:12.587Z,10.08
2019-03-23T03:51:38.666Z,10.32
2019-03-23T03:54:08.522Z,10.19
2019-03-23T03:56:38.348Z,10.14
2019-03-23T03:59:08.179Z,10.20
2019-03-23T04:01:37.986Z,9.95
2019-03-23T04:04:07.807Z,9.85
2019-03-23T04:06:37.622Z,9.34
2019-03-23T04:09:08.128Z,9.72
2019-03-23T04:11:37.886Z,9.32
2019-03-23T04:14:07.695Z,9.48
2019-03-23T04:16:37.490Z,9.50
2019-03-23T04:19:07.312Z,9.50
2019-03-23T04:21:37.086Z,9.51
2019-03-23T04:24:06.899Z,9.64
2019-03-23T04:26:39.193Z,9.70
2019-03-23T04:29:08.231Z,9.52
2019-03-23T04:31:38.026Z,9.25
2019-03-23T04:34:07.869Z,9.21
2019-03-23T04:36:37.621Z,8.99
2019-03-23T04:39:07.762Z,8.93
2019-03-23T04:41:37.529Z,9.13
2019-03-23T04:44:07.357Z,9.23
2019-03-23T04:46:37.154Z,9.38
2019-03-23T04:49:06.933Z,9.44
2019-03-23T04:51:36.724Z,9.38
2019-03-23T04:54:06.716Z,9.26
2019-03-23T04:56:36.616Z,9.53
2019-03-23T04:59:06.468Z,9.53
2019-03-23T05:01:36.310Z,9.11
2019-03-23T05:04:06.268Z,9.19
2019-03-23T05:06:36.082Z,9.46
2019-03-23T05:09:07.680Z,9.46
2019-03-23T05:11:37.446Z,9.56
2019-03-23T05:14:07.281Z,9.77
2019-03-23T05:16:37.078Z,9.59
2019-03-23T05:19:06.894Z,9.55
2019-03-23T05:21:36.739Z,9.17
2019-03-23T05:24:06.510Z,9.58
2019-03-23T05:26:36.336Z,9.37
2019-03-23T05:29:06.172Z,9.55
2019-03-23T05:31:35.963Z,9.61
2019-03-23T05:34:05.812Z,9.61
2019-03-23T05:36:35.652Z,9.46
2019-03-23T05:39:06.931Z,9.57
2019-03-23T05:41:36.786Z,9.44
2019-03-23T05:44:06.620Z,9.39
2019-03-23T05:46:36.399Z,9.14
2019-03-23T05:49:06.221Z,9.27
2019-03-23T05:51:36.019Z,9.19
2019-03-23T05:54:05.851Z,9.21
2019-03-23T05:56:35.662Z,9.00
2019-03-23T05:59:05.508Z,8.61
2019-03-23T06:01:35.389Z,9.00
2019-03-23T06:04:05.282Z,9.05
2019-03-23T06:06:35.072Z,8.90
2019-03-23T06:09:06.544Z,8.95
2019-03-23T06:11:36.337Z,8.84
2019-03-23T06:14:06.306Z,8.87
2019-03-23T06:16:36.104Z,8.94
2019-03-23T06:19:05.953Z,8.87
2019-03-23T06:21:35.749Z,8.55
2019-03-23T06:24:05.654Z,8.76
2019-03-23T06:26:35.451Z,8.86
2019-03-23T06:29:05.307Z,8.81
2019-03-23T06:31:35.107Z,8.40
2019-03-23T06:34:05.142Z,8.72
2019-03-23T06:36:34.999Z,8.91
2019-03-23T06:39:06.692Z,9.14
2019-03-23T06:41:36.545Z,8.63
2019-03-23T06:44:06.359Z,8.73
2019-03-23T06:46:36.180Z,8.72
2019-03-23T06:49:07.581Z,8.81
2019-03-23T06:51:37.405Z,9.03
2019-03-23T06:54:07.295Z,9.12
2019-03-23T06:56:37.123Z,9.07
2019-03-23T06:59:07.043Z,9.26
2019-03-23T07:01:38.826Z,9.06
2019-03-23T07:04:08.703Z,9.08
2019-03-23T07:06:38.628Z,9.01
2019-03-23T07:09:16.081Z,9.03
2019-03-23T07:11:40.267Z,9.18
2019-03-23T07:14:10.205Z,9.25
2019-03-23T07:16:40.026Z,9.21
2019-03-23T07:19:09.873Z,9.24
2019-03-23T07:21:39.725Z,9.26
2019-03-23T07:24:09.564Z,9.12
2019-03-23T07:26:39.413Z,9.51
2019-03-23T07:29:09.231Z,9.12
2019-03-23T07:31:39.117Z,8.99
2019-03-23T07:34:08.931Z,8.93
2019-03-23T07:36:38.752Z,8.79
2019-03-23T07:39:09.075Z,9.37
2019-03-23T07:41:38.926Z,9.19
2019-03-23T07:44:08.757Z,9.23
2019-03-23T07:46:38.618Z,9.11
2019-03-23T07:49:08.380Z,8.90
2019-03-23T07:51:38.202Z,9.19
2019-03-23T07:54:07.986Z,9.44
2019-03-23T07:56:37.822Z,9.36
2019-03-23T07:59:07.635Z,9.63
2019-03-23T08:01:37.474Z,9.46
2019-03-23T08:04:07.340Z,9.31
2019-03-23T08:06:37.158Z,9.61
2019-03-23T08:09:07.522Z,9.53
2019-03-23T08:11:37.389Z,9.35
2019-03-23T08:14:07.191Z,9.44
2019-03-23T08:16:37.015Z,9.45
2019-03-23T08:19:06.859Z,9.71
2019-03-23T08:21:36.652Z,9.80
2019-03-23T08:24:06.467Z,9.73
2019-03-23T08:26:36.302Z,9.90
2019-03-23T08:29:06.086Z,9.87
2019-03-23T08:31:35.900Z,9.98
2019-03-23T08:34:05.698Z,9.85
2019-03-23T08:36:35.508Z,9.84
2019-03-23T08:39:06.518Z,9.82
2019-03-23T08:41:36.369Z,9.87
2019-03-23T08:44:06.174Z,10.02
2019-03-23T08:46:36.856Z,10.22
2019-03-23T08:49:07.463Z,10.09
2019-03-23T08:51:38.092Z,10.11
2019-03-23T08:54:08.722Z,10.03
2019-03-23T08:56:39.341Z,10.11
2019-03-23T08:59:09.962Z,10.14
2019-03-23T09:01:40.578Z,9.96
2019-03-23T09:04:11.259Z,10.12
2019-03-23T09:06:41.892Z,10.31
2019-03-23T09:09:12.498Z,10.31
2019-03-23T09:11:43.102Z,10.43
2019-03-23T09:14:13.698Z,10.39
2019-03-23T09:16:44.311Z,10.30
2019-03-23T09:19:14.936Z,10.57
2019-03-23T09:21:46.564Z,10.53
2019-03-23T09:24:17.168Z,10.49
2019-03-23T09:26:47.812Z,10.67
2019-03-23T09:29:18.449Z,10.71
2019-03-23T09:31:49.020Z,10.79
2019-03-23T09:34:19.634Z,10.77
2019-03-23T09:36:50.216Z,10.85
2019-03-23T09:39:20.857Z,10.81
2019-03-23T09:41:51.468Z,10.96
2019-03-23T09:44:22.070Z,10.81
2019-03-23T09:46:52.644Z,10.92
2019-03-23T09:49:23.289Z,10.81
2019-03-23T09:51:53.914Z,11.06
2019-03-23T09:54:24.553Z,11.01
2019-03-23T09:56:55.144Z,11.10
2019-03-23T09:59:25.765Z,11.10
2019-03-23T10:01:56.352Z,11.10
2019-03-23T10:04:27.044Z,11.10
2019-03-23T10:06:57.624Z,11.12
2019-03-23T10:09:28.377Z,11.16
2019-03-23T10:11:59.291Z,11.03
2019-03-23T10:14:29.990Z,11.14
2019-03-23T10:17:00.678Z,11.37
2019-03-23T10:19:31.296Z,11.40
2019-03-23T10:22:01.981Z,11.48
2019-03-23T10:24:32.674Z,11.51
2019-03-23T10:27:03.234Z,11.52
2019-03-23T10:29:33.848Z,11.44
2019-03-23T10:32:04.440Z,11.48
2019-03-23T10:34:35.053Z,11.46
2019-03-23T10:37:05.693Z,11.42
2019-03-23T10:39:36.386Z,11.74
2019-03-23T10:42:07.006Z,11.68
2019-03-23T10:44:37.583Z,11.85
2019-03-23T10:47:08.200Z,11.97
2019-03-23T10:49:38.859Z,11.90
2019-03-23T10:52:09.452Z,11.91
2019-03-23T10:54:40.087Z,11.95
2019-03-23T10:57:10.687Z,12.06
2019-03-23T10:59:41.322Z,12.01
2019-03-23T11:02:11.916Z,12.18
2019-03-23T11:04:42.558Z,12.32
2019-03-23T11:07:13.120Z,12.32
2019-03-23T11:09:43.866Z,12.39
2019-03-23T11:12:14.505Z,12.18
2019-03-23T11:14:45.206Z,12.29
2019-03-23T11:17:15.798Z,12.53
2019-03-23T11:19:46.437Z,12.36
2019-03-23T11:22:16.989Z,12.39
2019-03-23T11:24:47.588Z,12.58
2019-03-23T11:27:18.203Z,12.73
2019-03-23T11:29:48.796Z,12.57
2019-03-23T11:32:19.368Z,12.57
2019-03-23T11:34:50.001Z,12.57
2019-03-23T11:37:20.666Z,12.64
2019-03-23T11:39:51.463Z,12.68
2019-03-23T11:42:22.060Z,12.70
2019-03-23T11:44:55.697Z,12.73
2019-03-23T11:47:26.498Z,12.68
2019-03-23T11:49:57.228Z,12.68
2019-03-23T11:52:27.887Z,12.71
2019-03-23T11:54:58.578Z,12.79
2019-03-23T11:57:29.184Z,12.65
2019-03-23T11:59:59.844Z,12.70
2019-03-23T12:02:30.509Z,12.70
2019-03-23T12:05:01.976Z,12.76
2019-03-23T12:07:33.218Z,12.76
2019-03-23T12:10:04.353Z,12.65
2019-03-23T12:12:34.961Z,12.65
2019-03-23T12:15:06.209Z,12.77
2019-03-23T12:17:36.946Z,12.74
2019-03-23T12:20:07.819Z,12.87
2019-03-23T12:22:38.443Z,12.87
2019-03-23T12:25:09.627Z,13.04
2019-03-23T12:27:40.292Z,12.98
2019-03-23T12:30:12.728Z,13.00
2019-03-23T12:32:43.377Z,12.81
2019-03-23T12:35:13.971Z,12.81
2019-03-23T12:37:44.568Z,12.91
2019-03-23T12:40:15.287Z,13.09
2019-03-23T12:42:45.897Z,13.11
2019-03-23T12:45:16.619Z,13.10
2019-03-23T12:47:47.211Z,13.04
2019-03-23T12:50:17.789Z,12.84
2019-03-23T12:52:48.567Z,12.73
2019-03-23T12:55:19.170Z,12.86
2019-03-23T12:57:49.757Z,12.83
2019-03-23T13:00:20.743Z,12.68
2019-03-23T13:02:51.359Z,12.73
2019-03-23T13:05:21.963Z,12.52
2019-03-23T13:07:52.587Z,12.62
2019-03-23T13:10:23.188Z,12.70
2019-03-23T13:12:53.841Z,12.68
2019-03-23T13:15:24.429Z,12.57
2019-03-23T13:17:55.051Z,12.52
2019-03-23T13:20:25.726Z,12.71
2019-03-23T13:22:56.333Z,12.64
2019-03-23T13:25:26.991Z,12.60
2019-03-23T13:27:57.555Z,12.55
2019-03-23T13:30:28.160Z,12.58
2019-03-23T13:32:58.731Z,12.58
2019-03-23T13:35:29.281Z,12.07
2019-03-23T13:37:59.916Z,12.23
2019-03-23T13:40:30.529Z,12.12
2019-03-23T13:43:01.159Z,12.31
2019-03-23T13:45:31.763Z,12.17
2019-03-23T13:48:03.093Z,12.17
2019-03-23T13:50:33.743Z,12.28
2019-03-23T13:53:04.349Z,12.28
2019-03-23T13:55:35.545Z,12.44
2019-03-23T13:58:10.985Z,12.37
2019-03-23T14:00:41.661Z,12.40
2019-03-23T14:03:12.374Z,12.07
2019-03-23T14:05:43.083Z,12.07
2019-03-23T14:08:13.726Z,12.18
2019-03-23T14:10:44.382Z,12.09
2019-03-23T14:13:16.484Z,12.28
2019-03-23T14:15:47.062Z,12.04
2019-03-23T14:18:17.684Z,12.36
2019-03-23T14:20:48.247Z,12.27
2019-03-23T14:23:18.981Z,12.13
2019-03-23T14:25:49.555Z,12.13
2019-03-23T14:28:20.193Z,11.69
2019-03-23T14:30:50.797Z,12.01
2019-03-23T14:33:21.439Z,11.97
2019-03-23T14:35:52.130Z,11.76
2019-03-23T14:38:22.810Z,11.96
2019-03-23T14:40:53.487Z,11.85
2019-03-23T14:43:24.063Z,11.90
2019-03-23T14:45:54.640Z,11.89
2019-03-23T14:48:25.252Z,12.01
2019-03-23T14:50:55.793Z,12.06
2019-03-23T14:53:26.449Z,12.13
2019-03-23T14:55:57.046Z,12.13
2019-03-23T14:58:27.694Z,12.00
2019-03-23T15:00:58.271Z,12.22
2019-03-23T15:03:28.968Z,12.14
2019-03-23T15:05:59.581Z,12.31
2019-03-23T15:08:31.881Z,12.53
2019-03-23T15:11:02.509Z,12.52
2019-03-23T15:13:33.124Z,12.66
2019-03-23T15:16:03.700Z,12.58
2019-03-23T15:18:34.294Z,12.56
2019-03-23T15:21:04.902Z,12.56
2019-03-23T15:23:35.533Z,12.57
2019-03-23T15:26:06.120Z,12.48
2019-03-23T15:28:36.742Z,12.53
2019-03-23T15:31:07.290Z,12.76
2019-03-23T15:33:37.919Z,12.76
2019-03-23T15:36:08.468Z,12.49
2019-03-23T15:38:39.122Z,12.49
2019-03-23T15:41:09.711Z,12.60
2019-03-23T15:43:40.333Z,12.60
2019-03-23T15:46:10.986Z,12.62
2019-03-23T15:48:41.552Z,12.65
2019-03-23T15:51:12.152Z,12.65
2019-03-23T15:53:42.758Z,12.78
2019-03-23T15:56:13.339Z,12.83
2019-03-23T15:58:43.966Z,12.68
2019-03-23T16:01:14.538Z,12.64
2019-03-23T16:03:45.180Z,12.69
2019-03-23T16:06:15.834Z,12.56
2019-03-23T16:08:46.475Z,12.29
2019-03-23T16:11:17.092Z,12.29
2019-03-23T16:13:47.725Z,12.38
2019-03-23T16:16:18.294Z,12.55
2019-03-23T16:18:48.905Z,12.62
2019-03-23T16:21:19.445Z,12.55
2019-03-23T16:23:50.046Z,12.55
2019-03-23T16:26:20.647Z,12.69
2019-03-23T16:28:51.288Z,12.51
2019-03-23T16:31:21.877Z,12.51
2019-03-23T16:33:52.498Z,12.43
2019-03-23T16:36:23.045Z,12.25
2019-03-23T16:38:53.673Z,12.25
2019-03-23T16:41:24.366Z,12.10
2019-03-23T16:43:55.001Z,12.10
2019-03-23T16:46:25.582Z,12.08
2019-03-23T16:48:56.192Z,12.14
2019-03-23T16:51:26.744Z,12.20
2019-03-23T16:53:57.396Z,12.25
2019-03-23T16:56:28.000Z,12.19
2019-03-23T16:58:58.683Z,11.96
2019-03-23T17:01:29.312Z,11.89
2019-03-23T17:03:59.941Z,12.11
2019-03-23T17:06:30.706Z,12.11
2019-03-23T17:09:01.287Z,12.17
2019-03-23T17:11:31.998Z,12.08
2019-03-23T17:14:02.589Z,12.17
2019-03-23T17:16:33.194Z,12.04
2019-03-23T17:19:03.786Z,11.71
2019-03-23T17:21:34.431Z,11.84
2019-03-23T17:24:04.999Z,11.67
2019-03-23T17:26:35.685Z,11.45
2019-03-23T17:29:06.315Z,11.45
2019-03-23T17:31:36.928Z,11.29
2019-03-23T17:34:07.489Z,11.55
2019-03-23T17:36:38.092Z,11.34
2019-03-23T17:39:08.725Z,11.52
2019-03-23T17:41:39.351Z,11.46
2019-03-23T17:44:09.909Z,11.28
2019-03-23T17:46:40.477Z,11.21
2019-03-23T17:49:11.053Z,11.34
2019-03-23T17:51:41.661Z,11.30
2019-03-23T17:54:12.229Z,11.28
2019-03-23T17:56:42.859Z,10.91
2019-03-23T17:59:13.439Z,11.06
2019-03-23T18:01:44.158Z,11.18
2019-03-23T18:04:14.795Z,11.25
2019-03-23T18:06:45.415Z,11.06
2019-03-23T18:09:15.995Z,10.89
2019-03-23T18:11:46.625Z,10.71
2019-03-23T18:14:17.760Z,10.94
2019-03-23T18:16:48.309Z,10.77
2019-03-23T18:19:18.898Z,10.90
2019-03-23T18:21:49.514Z,10.90
2019-03-23T18:24:20.384Z,10.84
2019-03-23T18:26:51.045Z,10.90
2019-03-23T18:29:21.662Z,10.81
2019-03-23T18:31:52.319Z,10.65
2019-03-23T18:34:22.871Z,10.71
2019-03-23T18:36:53.625Z,10.67
2019-03-23T18:39:24.202Z,10.79
2019-03-23T18:41:54.890Z,10.54
2019-03-23T18:44:25.487Z,10.43
2019-03-23T18:46:56.090Z,10.61
2019-03-23T18:49:26.663Z,10.48
2019-03-23T18:51:57.266Z,10.58
2019-03-23T18:54:27.859Z,10.50
2019-03-23T18:56:58.499Z,10.62
2019-03-23T18:59:29.063Z,10.33
2019-03-23T19:01:59.651Z,10.33
2019-03-23T19:04:30.294Z,10.45
2019-03-23T19:07:01.736Z,10.43
2019-03-23T19:09:32.329Z,10.36
2019-03-23T19:12:02.898Z,10.52
2019-03-23T19:14:33.495Z,10.02
2019-03-23T19:17:04.134Z,10.35
2019-03-23T19:19:34.659Z,10.29
2019-03-23T19:22:05.400Z,10.19
2019-03-23T19:24:35.969Z,10.22
2019-03-23T19:27:06.620Z,10.27
2019-03-23T19:29:37.227Z,9.98
2019-03-23T19:32:07.875Z,9.83
2019-03-23T19:34:38.451Z,10.09
2019-03-23T19:37:09.032Z,9.95
2019-03-23T19:39:39.582Z,9.87
2019-03-23T19:42:10.604Z,9.92
2019-03-23T19:44:41.204Z,9.91
2019-03-23T19:47:11.875Z,9.87
2019-03-23T19:49:42.478Z,9.70
2019-03-23T19:52:13.072Z,9.75
2019-03-23T19:54:43.649Z,9.58
2019-03-23T19:57:14.263Z,9.81
2019-03-23T19:59:44.820Z,9.53
2019-03-23T20:02:15.394Z,9.42
2019-03-23T20:04:45.988Z,9.55
2019-03-23T20:07:16.550Z,9.56
2019-03-23T20:09:47.191Z,9.77
2019-03-23T20:12:17.783Z,9.68
2019-03-23T20:14:48.360Z,9.76
2019-03-23T20:17:18.938Z,9.56
2019-03-23T20:19:49.524Z,9.57
2019-03-23T20:22:20.104Z,9.32
2019-03-23T20:24:50.689Z,9.51
2019-03-23T20:27:21.239Z,9.58
2019-03-23T20:29:51.849Z,9.23
2019-03-23T20:32:22.395Z,9.45
2019-03-23T20:34:53.009Z,9.46
2019-03-23T20:37:23.642Z,9.08
2019-03-23T20:39:54.248Z,9.34
2019-03-23T20:42:24.810Z,9.31
2019-03-23T20:44:55.418Z,8.91
2019-03-23T20:47:25.983Z,9.25
2019-03-23T20:49:56.584Z,9.22
2019-03-23T20:52:27.150Z,9.41
2019-03-23T20:54:57.791Z,9.37
2019-03-23T20:57:36.872Z,9.09
2019-03-23T21:00:00.790Z,9.12
2019-03-23T21:02:31.379Z,9.31
2019-03-23T21:05:02.680Z,9.23
2019-03-23T21:07:33.274Z,9.26
2019-03-23T21:10:03.969Z,9.14
2019-03-23T21:12:34.562Z,9.31
2019-03-23T21:15:05.288Z,9.12
2019-03-23T21:17:35.864Z,8.65
2019-03-23T21:20:06.643Z,9.17
2019-03-23T21:22:37.255Z,9.22
2019-03-23T21:25:08.230Z,9.34
2019-03-23T21:27:38.796Z,9.18
2019-03-23T21:30:11.908Z,9.13
2019-03-23T21:32:42.457Z,9.04
2019-03-23T21:35:15.578Z,9.07
2019-03-23T21:37:45.435Z,9.19
2019-03-23T21:40:16.046Z,9.23
2019-03-23T21:42:46.642Z,9.18
2019-03-23T21:45:17.421Z,9.21
2019-03-23T21:47:47.975Z,9.16
2019-03-23T21:50:18.571Z,9.25
2019-03-23T21:52:49.178Z,9.12
2019-03-23T21:55:19.781Z,9.03
2019-03-23T21:57:50.347Z,9.07
2019-03-23T22:00:39.750Z,9.07
2019-03-23T22:03:10.407Z,8.78
2019-03-23T22:05:41.041Z,9.07
2019-03-23T22:08:11.610Z,8.98
2019-03-23T22:10:42.568Z,9.14
2019-03-23T22:13:13.158Z,9.12
2019-03-23T22:15:43.773Z,9.25
2019-03-23T22:18:14.364Z,9.11
2019-03-23T22:20:44.968Z,9.02
2019-03-23T22:23:15.558Z,8.97
2019-03-23T22:25:46.210Z,8.86
2019-03-23T22:28:16.796Z,8.81
2019-03-23T22:30:47.398Z,8.95
2019-03-23T22:33:18.021Z,8.98
2019-03-23T22:35:48.703Z,8.98
2019-03-23T22:38:19.255Z,8.58
2019-03-23T22:40:49.882Z,8.93
2019-03-23T22:43:20.492Z,8.65
2019-03-23T22:45:51.128Z,8.35
2019-03-23T22:48:21.797Z,8.54
2019-03-23T22:50:52.460Z,8.67
2019-03-23T22:53:23.048Z,8.36
2019-03-23T22:55:53.700Z,8.38
2019-03-23T22:58:24.384Z,8.66
2019-03-23T23:00:56.222Z,8.77
2019-03-23T23:03:26.856Z,8.52
2019-03-23T23:05:57.466Z,8.60
2019-03-23T23:08:28.108Z,8.18
2019-03-23T23:10:58.913Z,8.11
2019-03-23T23:13:29.605Z,8.13
2019-03-23T23:16:00.217Z,8.16
2019-03-23T23:18:30.821Z,8.37
2019-03-23T23:21:01.379Z,8.19
2019-03-23T23:23:32.061Z,8.22
2019-03-23T23:26:02.816Z,7.92
2019-03-23T23:28:33.374Z,8.18
2019-03-23T23:31:03.944Z,7.91
2019-03-23T23:33:34.646Z,8.15
2019-03-23T23:36:05.493Z,8.30
2019-03-23T23:38:36.118Z,8.18
2019-03-23T23:41:06.668Z,8.17
2019-03-23T23:43:37.717Z,8.13
2019-03-23T23:46:08.433Z,8.08
2019-03-23T23:48:39.084Z,8.27
2019-03-23T23:51:09.611Z,8.30
2019-03-23T23:53:40.289Z,8.25
2019-03-23T23:56:10.900Z,8.31
2019-03-23T23:58:41.497Z,8.11
